Airfield :
LOGIN :

Register | Disclaimer

   EN    FR    IT 

 










Legend :    VFR   Marginal VFR   IFR   Intensive IFR   Very Intensive IFR
Visi :
Ceiling :
>= 8 km
>= 3000ft
5 to 8 km
1000 to 3000 ft
1500m to 5 km
500 to 1000 ft
800 to 1500m
200 to 500 ft
< 800m
< 200 ft
Symbols :   Thunderstorms  Fog  Heavy snow  Heavy precipitations  Wind > 20 kt
SIGMETs :     Misc.  Thunderstorms  Icing  Turbulence  Mountain Waves  Volcanic Ashes






- Airport Elevation : 1106 ft


LFSO - Nancy / Ochey

CURRENT METAR :
  • 070800Z AUTO 25005KT 220V290 9999 BKN046 19/12 Q1024

EXPIRED METARs :
  • 070730Z AUTO 25005KT 9999 OVC043 17/11 Q1024
  • 070700Z AUTO 25004KT 9999 OVC041 16/10 Q1024
  • 070630Z AUTO 23005KT 200V270 9999 OVC041 16/09 Q1024
  • 070600Z AUTO 25005KT 9999 SCT041 16/09 Q1024
  • 070530Z AUTO 23005KT CAVOK 15/09 Q1024

Expired Forecast.



MET'MAP, your aeronautical weather chart ! - Copyright ORBIFLY December 2007 - Disclaimer

ORBIFLY MET'MAP TEAM :

Programming & Development : Alexandra Zaïnal
Original concept : Baudouin d'Aumeries
Technical & hardware support : Manuel Goepfert
Assistance : Marc-Olivier Méhu




SOURCES & CREDITS :

   NOAA